createdAt,value
2022-09-29T00:00:10.126Z,8.57
2022-09-29T00:05:12.813Z,8.53
2022-09-29T00:10:17.060Z,8.53
2022-09-29T00:15:19.932Z,8.47
2022-09-29T00:20:22.533Z,8.44
2022-09-29T00:25:26.497Z,8.40
2022-09-29T00:30:29.202Z,8.45
2022-09-29T00:35:31.838Z,8.44
2022-09-29T00:40:35.856Z,8.35
2022-09-29T00:45:38.492Z,8.29
2022-09-29T00:50:43.817Z,8.18
2022-09-29T00:55:50.848Z,8.19
2022-09-29T01:00:54.342Z,8.17
2022-09-29T01:05:59.498Z,8.05
2022-09-29T01:11:03.678Z,7.97
2022-09-29T01:16:06.738Z,7.97
2022-09-29T01:21:15.386Z,7.95
2022-09-29T01:26:39.282Z,7.94
2022-09-29T01:31:50.081Z,7.86
2022-09-29T01:37:07.169Z,7.71
2022-09-29T01:42:13.830Z,7.74
2022-09-29T01:47:20.504Z,7.76
2022-09-29T01:52:25.259Z,7.87
2022-09-29T01:57:32.350Z,7.93
2022-09-29T02:02:39.055Z,7.99
2022-09-29T02:07:44.804Z,7.99
2022-09-29T02:12:48.379Z,8.02
2022-09-29T02:17:53.182Z,8.07
2022-09-29T02:22:56.653Z,8.07
2022-09-29T02:27:59.331Z,8.07
2022-09-29T02:33:03.477Z,8.02
2022-09-29T02:38:08.270Z,7.99
2022-09-29T02:43:27.959Z,7.91
2022-09-29T02:48:57.113Z,7.86
2022-09-29T02:54:20.780Z,7.81
2022-09-29T02:59:27.832Z,7.78
2022-09-29T03:04:31.949Z,7.78
2022-09-29T03:09:34.542Z,7.76
2022-09-29T03:14:37.286Z,7.65
2022-09-29T03:19:41.472Z,7.49
2022-09-29T03:24:44.450Z,7.42
2022-09-29T03:29:47.103Z,7.36
2022-09-29T03:34:51.106Z,7.23
2022-09-29T03:39:53.866Z,7.28
2022-09-29T03:44:56.598Z,7.36
2022-09-29T03:50:00.723Z,7.37
2022-09-29T03:55:03.494Z,7.37
2022-09-29T04:00:06.798Z,7.38
2022-09-29T04:05:12.534Z,7.32
2022-09-29T04:10:15.487Z,7.21
2022-09-29T04:15:18.253Z,7.29
2022-09-29T04:20:22.475Z,7.43
2022-09-29T04:25:25.519Z,7.53
2022-09-29T04:30:28.297Z,7.54
2022-09-29T04:35:36.638Z,7.56
2022-09-29T04:40:39.646Z,7.57
2022-09-29T04:45:42.398Z,7.55
2022-09-29T04:50:46.758Z,7.51
2022-09-29T04:55:49.548Z,7.51
2022-09-29T05:00:52.202Z,7.47
2022-09-29T05:05:57.114Z,7.40
2022-09-29T05:10:59.749Z,7.30
2022-09-29T05:16:03.167Z,7.23
2022-09-29T05:21:27.567Z,7.17
2022-09-29T05:26:30.618Z,7.16
2022-09-29T05:31:33.330Z,7.16
2022-09-29T05:36:37.348Z,7.21
2022-09-29T05:41:40.182Z,7.27
2022-09-29T05:46:43.207Z,7.30
2022-09-29T05:51:47.154Z,7.33
2022-09-29T05:56:49.742Z,7.39
2022-09-29T06:01:52.594Z,7.43
2022-09-29T06:06:57.289Z,7.50
2022-09-29T06:11:59.926Z,7.56
2022-09-29T06:17:02.529Z,7.64
2022-09-29T06:22:06.453Z,7.72
2022-09-29T06:27:09.233Z,7.81
2022-09-29T06:32:11.986Z,7.89
2022-09-29T06:37:33.556Z,7.97
2022-09-29T06:42:36.493Z,8.04
2022-09-29T06:47:39.178Z,8.06
2022-09-29T06:52:48.836Z,8.09
2022-09-29T06:57:57.901Z,8.20
2022-09-29T07:03:02.830Z,8.25
2022-09-29T07:08:06.973Z,8.32
2022-09-29T07:13:09.950Z,8.37
2022-09-29T07:18:12.528Z,8.42
2022-09-29T07:23:16.469Z,8.47
2022-09-29T07:28:19.250Z,8.67
2022-09-29T07:33:32.798Z,8.80
2022-09-29T07:38:42.741Z,8.96
2022-09-29T07:43:45.546Z,9.08
2022-09-29T07:48:48.221Z,9.19
2022-09-29T07:53:52.334Z,9.20
2022-09-29T07:58:54.948Z,9.32
2022-09-29T08:03:57.696Z,9.46
2022-09-29T08:09:05.060Z,9.59
2022-09-29T08:14:08.517Z,9.60
2022-09-29T08:19:11.288Z,9.77
2022-09-29T08:24:15.527Z,9.96
2022-09-29T08:29:18.135Z,10.06
2022-09-29T08:34:21.018Z,10.08
2022-09-29T08:39:25.123Z,10.21
2022-09-29T08:44:38.390Z,10.26
2022-09-29T08:49:44.101Z,10.31
2022-09-29T08:54:50.566Z,10.34
2022-09-29T08:59:55.862Z,10.42
2022-09-29T09:05:11.970Z,10.52
2022-09-29T09:10:26.409Z,10.60
2022-09-29T09:15:38.392Z,10.75
2022-09-29T09:20:45.863Z,10.83
2022-09-29T09:25:53.478Z,10.95
2022-09-29T09:30:59.326Z,10.98
2022-09-29T09:36:04.794Z,11.10
2022-09-29T09:41:09.567Z,11.23
2022-09-29T09:46:17.409Z,11.18
2022-09-29T09:51:33.351Z,11.26
2022-09-29T09:56:49.591Z,11.53
2022-09-29T10:01:52.507Z,11.78
2022-09-29T10:06:56.235Z,12.13
2022-09-29T10:12:00.329Z,12.55
2022-09-29T10:17:07.028Z,12.70
2022-09-29T10:22:14.073Z,12.55
2022-09-29T10:27:22.064Z,12.48
2022-09-29T10:32:36.334Z,12.22
2022-09-29T10:37:40.561Z,12.18
2022-09-29T10:42:46.799Z,12.21
2022-09-29T10:47:54.031Z,12.06
2022-09-29T10:52:58.163Z,11.92
2022-09-29T10:58:07.696Z,12.00
2022-09-29T11:03:18.527Z,12.12
2022-09-29T11:08:25.831Z,12.97
2022-09-29T11:13:38.895Z,13.36
2022-09-29T11:18:41.826Z,18.69
2022-09-29T11:23:47.395Z,20.88
2022-09-29T11:29:04.910Z,20.82
2022-09-29T11:34:20.384Z,22.10
2022-09-29T11:39:34.736Z,23.09
2022-09-29T11:44:53.119Z,19.44
2022-09-29T11:50:02.117Z,23.12
2022-09-29T11:55:20.904Z,22.27
2022-09-29T12:00:36.192Z,18.59
2022-09-29T12:05:52.235Z,19.54
2022-09-29T12:10:57.994Z,17.52
2022-09-29T12:16:04.363Z,26.92
2022-09-29T12:21:09.024Z,31.06
2022-09-29T12:26:16.447Z,29.05
2022-09-29T12:31:25.675Z,27.69
2022-09-29T12:36:50.599Z,25.15
2022-09-29T12:41:55.182Z,23.67
2022-09-29T12:47:04.186Z,19.84
2022-09-29T12:52:12.570Z,21.40
2022-09-29T12:57:16.432Z,22.52
2022-09-29T13:02:38.840Z,19.39
2022-09-29T13:08:24.289Z,18.45
2022-09-29T13:13:51.836Z,17.90
2022-09-29T13:19:29.634Z,17.24
2022-09-29T13:24:52.016Z,16.88
2022-09-29T13:29:58.130Z,16.13
2022-09-29T13:35:03.278Z,15.66
2022-09-29T13:40:11.483Z,15.64
2022-09-29T13:45:41.262Z,15.42
2022-09-29T13:50:47.531Z,15.26
2022-09-29T13:55:51.451Z,14.91
2022-09-29T14:00:54.261Z,14.73
2022-09-29T14:11:44.528Z,15.59
2022-09-29T14:16:53.661Z,15.81
2022-09-29T14:21:59.392Z,15.65
2022-09-29T14:27:21.659Z,15.57
2022-09-29T14:32:35.463Z,15.62
2022-09-29T14:37:39.546Z,15.70
2022-09-29T14:42:42.126Z,15.60
2022-09-29T14:48:05.679Z,15.23
2022-09-29T14:53:20.104Z,15.00
2022-09-29T14:58:31.226Z,14.73
2022-09-29T15:03:37.515Z,14.49
2022-09-29T15:08:42.745Z,14.31
2022-09-29T15:13:46.733Z,14.13
2022-09-29T15:19:07.149Z,13.94
2022-09-29T15:24:23.199Z,13.81
2022-09-29T15:29:25.988Z,13.71
2022-09-29T15:34:28.663Z,13.69
2022-09-29T15:39:45.044Z,13.65
2022-09-29T15:44:55.086Z,13.55
2022-09-29T15:49:57.876Z,13.47
2022-09-29T15:55:01.898Z,13.42
2022-09-29T16:00:05.103Z,13.38
2022-09-29T16:05:16.915Z,13.28
2022-09-29T16:10:22.896Z,13.25
2022-09-29T16:15:29.406Z,13.19
2022-09-29T16:20:33.442Z,13.13
2022-09-29T16:25:37.569Z,13.03
2022-09-29T16:30:40.210Z,12.96
2022-09-29T16:35:50.663Z,12.95
2022-09-29T16:40:56.734Z,12.91
2022-09-29T16:46:02.276Z,12.85
2022-09-29T16:51:12.387Z,12.77
2022-09-29T16:56:29.299Z,12.69
2022-09-29T17:01:32.796Z,12.66
2022-09-29T17:06:35.552Z,12.54
2022-09-29T17:11:40.111Z,12.59
2022-09-29T17:16:42.739Z,12.58
2022-09-29T17:21:45.469Z,12.54
2022-09-29T17:27:06.982Z,12.49
2022-09-29T17:32:13.127Z,12.49
2022-09-29T17:37:19.594Z,12.47
2022-09-29T17:42:26.940Z,12.43
2022-09-29T17:47:32.018Z,12.39
2022-09-29T17:52:37.499Z,12.38
2022-09-29T17:57:42.784Z,12.31
2022-09-29T18:02:45.622Z,12.28
2022-09-29T18:07:48.431Z,12.24
2022-09-29T18:12:52.516Z,12.19
2022-09-29T18:17:59.594Z,12.08
2022-09-29T18:23:03.051Z,12.00
2022-09-29T18:28:07.009Z,11.88
2022-09-29T18:33:13.251Z,11.78
2022-09-29T18:38:15.955Z,11.69
2022-09-29T18:43:20.663Z,11.60
2022-09-29T18:48:23.470Z,11.48
2022-09-29T18:53:27.990Z,11.45
2022-09-29T18:58:33.375Z,11.37
2022-09-29T19:03:36.148Z,11.28
2022-09-29T19:08:38.792Z,11.24
2022-09-29T19:13:43.573Z,11.20
2022-09-29T19:18:46.370Z,11.15
2022-09-29T19:23:49.019Z,11.08
2022-09-29T19:28:53.023Z,10.96
2022-09-29T19:33:57.401Z,10.87
2022-09-29T19:39:01.329Z,10.81
2022-09-29T19:44:05.404Z,10.79
2022-09-29T19:49:08.091Z,10.81
2022-09-29T19:54:15.087Z,10.77
2022-09-29T19:59:21.162Z,10.74
2022-09-29T20:04:29.520Z,10.71
2022-09-29T20:09:33.196Z,10.68
2022-09-29T20:14:37.915Z,10.61
2022-09-29T20:19:40.484Z,10.55
2022-09-29T20:24:43.154Z,10.57
2022-09-29T20:29:48.329Z,10.60
2022-09-29T20:34:50.931Z,10.65
2022-09-29T20:39:54.743Z,10.60
2022-09-29T20:44:59.753Z,10.56
2022-09-29T20:50:02.354Z,10.60
2022-09-29T20:55:05.797Z,10.63
2022-09-29T21:00:13.151Z,10.71
2022-09-29T21:05:16.028Z,10.70
2022-09-29T21:10:18.616Z,10.66
2022-09-29T21:15:22.750Z,10.60
2022-09-29T21:20:25.367Z,10.57
2022-09-29T21:25:28.600Z,10.56
2022-09-29T21:30:32.699Z,10.50
2022-09-29T21:35:35.418Z,10.35
2022-09-29T21:40:37.989Z,10.23
2022-09-29T21:45:41.954Z,10.21
2022-09-29T21:50:44.544Z,10.23
2022-09-29T21:55:47.115Z,10.13
2022-09-29T22:00:51.223Z,10.05
2022-09-29T22:05:53.909Z,9.99
2022-09-29T22:10:57.683Z,9.97
2022-09-29T22:16:04.489Z,9.94
2022-09-29T22:21:08.932Z,9.83
2022-09-29T22:26:13.913Z,9.77
2022-09-29T22:31:17.872Z,9.60
2022-09-29T22:36:20.534Z,9.55
2022-09-29T22:41:24.203Z,9.68
2022-09-29T22:46:30.037Z,9.74
2022-09-29T22:51:33.173Z,9.71
2022-09-29T22:56:35.765Z,9.74
2022-09-29T23:01:39.715Z,9.77
2022-09-29T23:06:42.421Z,9.71
2022-09-29T23:11:45.041Z,9.70
2022-09-29T23:16:49.008Z,9.62
2022-09-29T23:21:52.098Z,9.62
2022-09-29T23:26:54.728Z,9.59
2022-09-29T23:31:58.945Z,9.56
2022-09-29T23:37:02.059Z,9.49
2022-09-29T23:42:05.147Z,9.47
2022-09-29T23:47:09.131Z,9.46
2022-09-29T23:52:11.721Z,9.39
2022-09-29T23:57:14.313Z,9.34
